Aliso Viejo, California
Current Conditions -  °F | °C
As of 11:53 AM on Friday 19 Dec 2014 (Local Time) from KSNA Reporting Station
Scattered Clouds Scattered Clouds  
Wind Chill: 68°   Ceiling: Unl
Heat Index: 68°   Visibility: 10mi
Dew Point: 46°   Wind: 5mph
Humidity: 45%   Direction: NA
Pressure: 30.19"   Gusts: NA
Location:  33.57°N, 117.72°W
Report Text: KSNA 191953Z VRB04KT 10SM FEW045 SCT050 SCT250 20/08 A3019 RMK AO2 SLP223 T02000078
Loading
Personal Weather Stations






























Interactive Weather Map New forecast layout! Learn more

10-Day Weather Forecast

Advertisements
Track Severe Weather on mobile